createdAt,value
2023-02-24T00:00:32.699Z,101377.38
2023-02-24T00:03:37.644Z,101393.50
2023-02-24T00:06:44.028Z,101394.41
2023-02-24T00:09:46.795Z,101376.38
2023-02-24T00:12:49.753Z,101378.34
2023-02-24T00:16:03.007Z,101372.78
2023-02-24T00:19:07.618Z,101389.59
2023-02-24T00:22:10.467Z,101374.09
2023-02-24T00:25:14.850Z,101372.41
2023-02-24T00:28:16.878Z,101364.63
2023-02-24T00:31:24.928Z,101358.56
2023-02-24T00:34:31.739Z,101335.63
2023-02-24T00:37:34.727Z,101340.72
2023-02-24T00:40:37.773Z,101346.13
2023-02-24T00:43:47.077Z,101328.72
2023-02-24T00:46:49.126Z,101312.16
2023-02-24T00:49:51.349Z,101308.13
2023-02-24T00:52:54.107Z,101305.09
2023-02-24T00:56:00.734Z,101302.22
2023-02-24T00:59:03.660Z,101291.94
2023-02-24T01:02:07.335Z,101297.13
2023-02-24T01:05:09.973Z,101281.41
2023-02-24T01:08:12.760Z,101285.50
2023-02-24T01:11:37.559Z,101291.38
2023-02-24T01:14:41.415Z,101278.88
2023-02-24T01:17:43.670Z,101268.41
2023-02-24T01:20:46.374Z,101272.28
2023-02-24T01:23:50.117Z,101262.31
2023-02-24T01:26:53.135Z,101251.47
2023-02-24T01:29:55.214Z,101242.38
2023-02-24T01:32:57.721Z,101241.53
2023-02-24T01:36:28.605Z,101252.00
2023-02-24T01:39:30.794Z,101247.59
2023-02-24T01:42:34.234Z,101256.91
2023-02-24T01:45:40.233Z,101245.91
2023-02-24T01:48:42.883Z,101243.06
2023-02-24T01:51:50.247Z,101230.06
2023-02-24T01:55:09.409Z,101226.66
2023-02-24T01:58:13.904Z,101229.25
2023-02-24T02:01:20.442Z,101216.91
2023-02-24T02:04:36.690Z,101218.44
2023-02-24T02:07:40.662Z,101209.47
2023-02-24T02:10:44.395Z,101206.63
2023-02-24T02:13:52.454Z,101201.38
2023-02-24T02:17:00.308Z,101197.31
2023-02-24T02:20:16.031Z,101211.66
2023-02-24T02:23:28.797Z,101208.94
2023-02-24T02:27:12.311Z,101205.25
2023-02-24T02:30:38.697Z,101203.41
2023-02-24T02:34:02.854Z,101203.94
2023-02-24T02:37:12.185Z,101202.94
2023-02-24T02:40:24.210Z,101206.78
2023-02-24T02:43:49.705Z,101210.69
2023-02-24T02:47:09.136Z,101198.03
2023-02-24T02:50:24.300Z,101199.03
2023-02-24T02:53:39.765Z,101195.81
2023-02-24T02:57:02.203Z,101198.88
2023-02-24T03:00:23.394Z,101199.72
2023-02-24T03:03:28.119Z,101193.66
2023-02-24T03:06:53.770Z,101195.31
2023-02-24T03:10:01.492Z,101182.16
2023-02-24T03:13:06.638Z,101177.94
2023-02-24T03:16:12.728Z,101174.41
2023-02-24T03:19:20.786Z,101158.34
2023-02-24T03:22:35.145Z,101162.91
2023-02-24T03:25:47.038Z,101162.88
2023-02-24T03:29:10.299Z,101164.84
2023-02-24T03:32:12.669Z,101151.69
2023-02-24T03:35:19.872Z,101145.13
2023-02-24T03:38:24.623Z,101153.53
2023-02-24T03:41:35.832Z,101132.47
2023-02-24T03:44:38.262Z,101137.22
2023-02-24T03:47:41.380Z,101126.13
2023-02-24T03:50:44.052Z,101114.63
2023-02-24T03:54:21.402Z,101117.31
2023-02-24T03:57:55.034Z,101109.31
2023-02-24T04:01:15.008Z,101092.22
2023-02-24T04:04:35.589Z,101095.06
2023-02-24T04:08:04.613Z,101091.38
2023-02-24T04:11:17.915Z,101082.38
2023-02-24T04:14:49.689Z,101067.91
2023-02-24T04:18:02.190Z,101059.66
2023-02-24T04:21:09.335Z,101068.88
2023-02-24T04:24:15.894Z,101069.22
2023-02-24T04:27:21.803Z,101084.44
2023-02-24T04:30:29.876Z,101072.78
2023-02-24T04:33:33.769Z,101066.53
2023-02-24T04:36:38.080Z,101063.50
2023-02-24T04:39:41.049Z,101066.03
2023-02-24T04:42:50.532Z,101058.25
2023-02-24T04:45:56.131Z,101036.00
2023-02-24T04:48:58.079Z,101040.72
2023-02-24T04:52:00.134Z,101041.75
2023-02-24T04:55:10.092Z,101034.16
2023-02-24T04:58:14.540Z,101040.56
2023-02-24T05:01:16.641Z,101022.34
2023-02-24T05:04:18.719Z,101032.28
2023-02-24T05:07:22.694Z,101025.03
2023-02-24T05:10:28.186Z,101033.16
2023-02-24T05:13:31.964Z,101034.31
2023-02-24T05:16:34.659Z,101033.97
2023-02-24T05:20:11.830Z,101030.63
2023-02-24T05:23:14.066Z,101023.63
2023-02-24T05:26:18.365Z,101028.81
2023-02-24T05:29:20.472Z,101030.38
2023-02-24T05:32:24.485Z,101040.16
2023-02-24T05:35:26.558Z,101014.84
2023-02-24T05:38:28.580Z,101012.47
2023-02-24T05:41:36.116Z,101020.31
2023-02-24T05:44:38.224Z,101027.03
2023-02-24T05:47:40.350Z,101027.03
2023-02-24T05:50:46.320Z,101016.59
2023-02-24T05:53:48.689Z,101008.34
2023-02-24T05:56:50.696Z,101007.00
2023-02-24T05:59:53.352Z,101009.53
2023-02-24T06:03:07.707Z,101009.38
2023-02-24T06:06:09.717Z,101002.44
2023-02-24T06:09:13.996Z,101002.44
2023-02-24T06:12:17.177Z,100986.41
2023-02-24T06:15:19.172Z,100984.88
2023-02-24T06:18:24.123Z,100980.66
2023-02-24T06:21:29.311Z,100993.50
2023-02-24T06:24:33.595Z,100986.56
2023-02-24T06:27:39.234Z,100961.94
2023-02-24T06:30:41.347Z,100968.88
2023-02-24T06:33:43.434Z,100959.22
2023-02-24T06:36:47.083Z,100978.47
2023-02-24T06:39:49.066Z,100975.41
2023-02-24T06:42:56.566Z,100953.47
2023-02-24T06:46:02.502Z,100958.00
2023-02-24T06:49:04.559Z,100949.09
2023-02-24T06:52:06.694Z,100954.66
2023-02-24T06:55:25.514Z,100948.22
2023-02-24T06:58:27.596Z,100943.31
2023-02-24T07:01:29.618Z,100949.41
2023-02-24T07:04:36.332Z,100950.59
2023-02-24T07:07:38.365Z,100938.31
2023-02-24T07:10:40.507Z,100954.47
2023-02-24T07:13:43.021Z,100937.59
2023-02-24T07:16:45.901Z,100931.00
2023-02-24T07:19:48.010Z,100929.78
2023-02-24T07:22:50.302Z,100926.44
2023-02-24T07:25:53.530Z,100929.28
2023-02-24T07:28:56.800Z,100901.97
2023-02-24T07:32:03.598Z,100915.25
2023-02-24T07:35:06.149Z,100917.25
2023-02-24T07:38:08.333Z,100899.00
2023-02-24T07:41:12.405Z,100891.25
2023-02-24T07:44:14.392Z,100898.47
2023-02-24T07:47:16.430Z,100885.09
2023-02-24T07:50:19.547Z,100889.13
2023-02-24T07:53:21.616Z,100887.59
2023-02-24T07:56:31.146Z,100884.91
2023-02-24T07:59:35.926Z,100889.25
2023-02-24T08:02:38.955Z,100889.88
2023-02-24T08:05:43.760Z,100869.84
2023-02-24T08:08:57.955Z,100867.47
2023-02-24T08:12:01.546Z,100881.63
2023-02-24T08:15:17.272Z,100868.59
2023-02-24T08:18:20.239Z,100866.84
2023-02-24T08:21:22.637Z,100859.88
2023-02-24T08:24:30.045Z,100853.09
2023-02-24T08:27:34.275Z,100842.56
2023-02-24T08:30:46.612Z,100852.19
2023-02-24T08:33:48.731Z,100845.09
2023-02-24T08:36:56.159Z,100855.19
2023-02-24T08:39:58.404Z,100848.19
2023-02-24T08:43:17.222Z,100843.25
2023-02-24T08:46:26.997Z,100833.00
2023-02-24T08:49:29.439Z,100844.09
2023-02-24T08:52:32.416Z,100830.66
2023-02-24T08:55:39.956Z,100834.59
2023-02-24T08:58:47.487Z,100831.63
2023-02-24T09:02:04.372Z,100825.16
2023-02-24T09:05:14.202Z,100814.34
2023-02-24T09:08:16.588Z,100813.44
2023-02-24T09:11:23.181Z,100800.53
2023-02-24T09:14:28.496Z,100810.81
2023-02-24T09:17:41.162Z,100802.97
2023-02-24T09:21:16.271Z,100797.09
2023-02-24T09:24:27.847Z,100797.66
2023-02-24T09:27:31.612Z,100795.31
2023-02-24T09:30:51.249Z,100797.75
2023-02-24T09:33:53.624Z,100790.53
2023-02-24T09:37:03.363Z,100785.59
2023-02-24T09:40:21.404Z,100781.63
2023-02-24T09:43:28.108Z,100774.13
2023-02-24T09:46:56.866Z,100769.16
2023-02-24T09:50:06.225Z,100752.69
2023-02-24T09:53:17.610Z,100744.00
2023-02-24T09:56:26.012Z,100737.31
2023-02-24T10:00:01.610Z,100727.59
2023-02-24T10:03:20.166Z,100718.19
2023-02-24T10:06:26.932Z,100716.56
2023-02-24T10:09:35.561Z,100709.44
2023-02-24T10:12:40.406Z,100711.31
2023-02-24T10:15:58.062Z,100700.84
2023-02-24T10:19:17.314Z,100699.88
2023-02-24T10:22:29.710Z,100681.59
2023-02-24T10:25:57.143Z,100682.19
2023-02-24T10:29:29.664Z,100660.50
2023-02-24T10:32:37.503Z,100661.53
2023-02-24T10:35:39.457Z,100651.72
2023-02-24T10:38:45.591Z,100634.19
2023-02-24T10:41:57.758Z,100644.56
2023-02-24T10:45:18.530Z,100652.13
2023-02-24T10:48:40.680Z,100638.94
2023-02-24T10:51:51.525Z,100642.91
2023-02-24T10:55:08.841Z,100616.00
2023-02-24T10:58:43.367Z,100609.25
2023-02-24T11:01:55.921Z,100609.91
2023-02-24T11:05:03.665Z,100606.75
2023-02-24T11:08:15.880Z,100586.13
2023-02-24T11:11:31.030Z,100591.31
2023-02-24T11:15:08.940Z,100581.63
2023-02-24T11:18:18.481Z,100580.56
2023-02-24T11:21:24.824Z,100574.47
2023-02-24T11:24:29.749Z,100565.72
2023-02-24T11:27:32.883Z,100567.59
2023-02-24T11:30:46.540Z,100561.97
2023-02-24T11:34:21.692Z,100554.69
2023-02-24T11:37:45.125Z,100550.75
2023-02-24T11:40:55.959Z,100531.22
2023-02-24T11:44:31.284Z,100524.31
2023-02-24T11:47:41.389Z,100526.75
2023-02-24T11:51:06.630Z,100532.19
2023-02-24T11:54:15.260Z,100511.25
2023-02-24T11:57:23.945Z,100515.44
2023-02-24T12:00:34.155Z,100522.31
2023-02-24T12:04:01.504Z,100504.50
2023-02-24T12:07:31.006Z,100502.63
2023-02-24T12:10:41.564Z,100491.38
2023-02-24T12:13:53.961Z,100488.38
2023-02-24T12:17:18.328Z,100496.84
2023-02-24T12:20:32.878Z,100492.59
2023-02-24T12:23:36.173Z,100494.22
2023-02-24T12:27:12.487Z,100493.53
2023-02-24T12:30:51.295Z,100489.91
2023-02-24T12:34:08.983Z,100486.13
2023-02-24T12:37:28.564Z,100458.13
2023-02-24T12:40:50.366Z,100467.53
2023-02-24T12:43:57.782Z,100470.41
2023-02-24T12:47:16.403Z,100463.56
2023-02-24T12:50:30.987Z,100451.47
2023-02-24T12:54:01.682Z,100454.75
2023-02-24T12:57:22.432Z,100444.31
2023-02-24T13:00:43.344Z,100443.47
2023-02-24T13:04:22.084Z,100436.13
2023-02-24T13:07:50.670Z,100433.59
2023-02-24T13:10:59.210Z,100432.97
2023-02-24T13:14:20.457Z,100425.91
2023-02-24T13:17:27.351Z,100417.78
2023-02-24T13:20:32.149Z,100424.47
2023-02-24T13:23:38.821Z,100409.81
2023-02-24T13:26:40.829Z,100414.81
2023-02-24T13:29:47.701Z,100423.63
2023-02-24T13:33:04.472Z,100414.53
2023-02-24T13:36:09.937Z,100405.09
2023-02-24T13:39:36.536Z,100407.38
2023-02-24T13:42:39.072Z,100406.94
2023-02-24T13:45:42.848Z,100410.72
2023-02-24T13:49:00.335Z,100396.78
2023-02-24T13:52:18.531Z,100408.25
2023-02-24T13:55:39.902Z,100399.94
2023-02-24T13:59:01.746Z,100390.13
2023-02-24T14:02:22.736Z,100383.19
2023-02-24T14:05:35.554Z,100391.94
2023-02-24T14:08:42.702Z,100381.50
2023-02-24T14:11:44.930Z,100377.47
2023-02-24T14:14:48.565Z,100371.78
2023-02-24T14:18:00.144Z,100350.72
2023-02-24T14:21:02.557Z,100360.75
2023-02-24T14:24:11.686Z,100371.19
2023-02-24T14:27:25.121Z,100372.19
2023-02-24T14:30:37.341Z,100369.50
2023-02-24T14:33:42.092Z,100359.94
2023-02-24T14:36:49.882Z,100353.66
2023-02-24T14:40:20.496Z,100342.19
2023-02-24T14:43:24.249Z,100340.72
2023-02-24T14:46:26.783Z,100334.81
2023-02-24T14:49:34.226Z,100347.78
2023-02-24T14:52:42.424Z,100344.25
2023-02-24T14:55:50.160Z,100337.97
2023-02-24T14:59:01.412Z,100334.88
2023-02-24T15:02:12.442Z,100321.72
2023-02-24T15:05:15.438Z,100326.13
2023-02-24T15:08:29.755Z,100311.47
2023-02-24T15:11:33.106Z,100318.00
2023-02-24T15:14:35.228Z,100305.03
2023-02-24T15:17:41.686Z,100309.88
2023-02-24T15:20:43.797Z,100298.53
2023-02-24T15:23:52.395Z,100298.19
2023-02-24T15:27:00.830Z,100306.94
2023-02-24T15:30:25.674Z,100292.03
2023-02-24T15:33:34.368Z,100288.03
2023-02-24T15:36:36.851Z,100297.19
2023-02-24T15:39:43.653Z,100299.47
2023-02-24T15:42:57.882Z,100295.25
2023-02-24T15:46:00.130Z,100285.06
2023-02-24T15:49:04.776Z,100287.34
2023-02-24T15:52:11.237Z,100274.22
2023-02-24T15:55:18.323Z,100283.13
2023-02-24T15:58:30.517Z,100275.66
2023-02-24T16:01:33.449Z,100281.09
2023-02-24T16:04:35.529Z,100268.75
2023-02-24T16:07:39.313Z,100274.63
2023-02-24T16:10:42.568Z,100280.63
2023-02-24T16:13:52.626Z,100282.06
2023-02-24T16:20:31.804Z,100285.63
2023-02-24T16:23:56.843Z,100284.41
2023-02-24T16:26:58.942Z,100273.63
2023-02-24T16:30:02.561Z,100284.28
2023-02-24T16:33:05.951Z,100274.91
2023-02-24T16:36:12.139Z,100259.38
2023-02-24T16:39:15.858Z,100272.66
2023-02-24T16:42:20.186Z,100270.56
2023-02-24T16:45:28.591Z,100268.22
2023-02-24T16:48:36.946Z,100272.78
2023-02-24T16:51:40.648Z,100267.38
2023-02-24T16:54:42.994Z,100256.97
2023-02-24T16:57:50.162Z,100264.03
2023-02-24T17:00:54.796Z,100264.03
2023-02-24T17:03:56.975Z,100252.50
2023-02-24T17:06:59.181Z,100258.16
2023-02-24T17:10:01.200Z,100264.63
2023-02-24T17:13:03.594Z,100258.13
2023-02-24T17:16:06.066Z,100252.31
2023-02-24T17:19:09.214Z,100254.41
2023-02-24T17:22:11.335Z,100241.09
2023-02-24T17:25:21.914Z,100245.88
2023-02-24T17:28:24.493Z,100236.28
2023-02-24T17:31:31.712Z,100234.63
2023-02-24T17:34:33.924Z,100211.19
2023-02-24T17:37:36.306Z,100213.50
2023-02-24T17:40:38.413Z,100231.25
2023-02-24T17:43:40.478Z,100218.72
2023-02-24T17:46:42.824Z,100225.13
2023-02-24T17:49:44.945Z,100223.88
2023-02-24T17:52:47.137Z,100225.13
2023-02-24T17:56:01.856Z,100223.91
2023-02-24T17:59:07.653Z,100203.91
2023-02-24T18:02:11.759Z,100218.28
2023-02-24T18:05:16.514Z,100206.09
2023-02-24T18:08:18.543Z,100200.72
2023-02-24T18:11:21.273Z,100196.44
2023-02-24T18:14:23.655Z,100206.31
2023-02-24T18:17:26.083Z,100188.41
2023-02-24T18:20:28.244Z,100185.00
2023-02-24T18:23:30.401Z,100187.53
2023-02-24T18:26:32.416Z,100192.28
2023-02-24T18:29:34.556Z,100183.13
2023-02-24T18:32:36.822Z,100165.53
2023-02-24T18:35:39.230Z,100171.81
2023-02-24T18:38:41.550Z,100185.41
2023-02-24T18:41:47.618Z,100180.81
2023-02-24T18:44:49.705Z,100175.13
2023-02-24T18:47:52.723Z,100177.72
2023-02-24T18:50:56.582Z,100174.72
2023-02-24T18:53:59.496Z,100154.00
2023-02-24T18:57:02.716Z,100157.31
2023-02-24T19:00:08.762Z,100171.66
2023-02-24T19:03:18.141Z,100165.88
2023-02-24T19:06:22.186Z,100158.34
2023-02-24T19:09:24.499Z,100164.44
2023-02-24T19:12:26.917Z,100165.09
2023-02-24T19:15:30.126Z,100154.22
2023-02-24T19:18:32.510Z,100148.59
2023-02-24T19:21:34.653Z,100166.78
2023-02-24T19:24:36.843Z,100153.22
2023-02-24T19:27:39.725Z,100146.56
2023-02-24T19:30:41.885Z,100153.00
2023-02-24T19:33:44.584Z,100146.59
2023-02-24T19:36:46.675Z,100138.50
2023-02-24T19:39:48.813Z,100135.66
2023-02-24T19:42:53.316Z,100115.84
2023-02-24T19:45:55.544Z,100125.06
2023-02-24T19:48:57.635Z,100127.59
2023-02-24T19:52:00.096Z,100122.75
2023-02-24T19:55:02.486Z,100114.06
2023-02-24T19:58:05.124Z,100124.28
2023-02-24T20:01:16.676Z,100125.72
2023-02-24T20:04:19.101Z,100127.53
2023-02-24T20:07:22.772Z,100111.16
2023-02-24T20:10:24.794Z,100105.56
2023-02-24T20:13:26.920Z,100111.22
2023-02-24T20:16:32.688Z,100104.31
2023-02-24T20:19:35.203Z,100102.22
2023-02-24T20:22:37.294Z,100093.25
2023-02-24T20:25:39.558Z,100096.13
2023-02-24T20:28:41.836Z,100099.84
2023-02-24T20:31:46.371Z,100105.69
2023-02-24T20:34:48.561Z,100107.31
2023-02-24T20:37:50.641Z,100085.88
2023-02-24T20:41:00.648Z,100085.06
2023-02-24T20:44:02.698Z,100077.97
2023-02-24T20:47:06.190Z,100079.47
2023-02-24T20:50:08.550Z,100081.13
2023-02-24T20:53:10.672Z,100077.00
2023-02-24T20:56:20.516Z,100084.75
2023-02-24T20:59:23.148Z,100064.13
2023-02-24T21:02:26.190Z,100062.91
2023-02-24T21:05:28.204Z,100066.00
2023-02-24T21:08:31.147Z,100059.13
2023-02-24T21:11:34.608Z,100037.69
2023-02-24T21:14:36.840Z,100056.09
2023-02-24T21:17:39.820Z,100059.84
2023-02-24T21:20:41.828Z,100042.25
2023-02-24T21:23:44.265Z,100049.09
2023-02-24T21:26:47.548Z,100053.28
2023-02-24T21:29:49.522Z,100041.81
2023-02-24T21:32:51.642Z,100040.78
2023-02-24T21:36:03.393Z,100039.09
2023-02-24T21:39:08.662Z,100047.47
2023-02-24T21:42:12.296Z,100028.97
2023-02-24T21:45:19.366Z,100026.03
2023-02-24T21:48:22.192Z,100033.19
2023-02-24T21:51:25.381Z,100031.66
2023-02-24T21:54:30.104Z,100014.94
2023-02-24T21:57:32.209Z,100025.78
2023-02-24T22:00:34.294Z,100022.81
2023-02-24T22:03:36.360Z,100016.59
2023-02-24T22:06:39.810Z,100021.16
2023-02-24T22:09:41.963Z,100011.06
2023-02-24T22:12:44.656Z,100009.41
2023-02-24T22:15:46.644Z,100008.56
2023-02-24T22:18:49.826Z,100003.34
2023-02-24T22:21:51.794Z,100007.72
2023-02-24T22:24:55.038Z,100000.28
2023-02-24T22:27:57.330Z,100008.84
2023-02-24T22:30:59.826Z,100003.47
2023-02-24T22:34:04.523Z,99993.22
2023-02-24T22:37:07.295Z,99991.53
2023-02-24T22:40:10.422Z,100005.47
2023-02-24T22:43:12.507Z,99995.91
2023-02-24T22:46:21.877Z,100005.22
2023-02-24T22:49:24.123Z,99996.97
2023-02-24T22:52:26.898Z,100004.91
2023-02-24T22:55:29.537Z,99999.28
2023-02-24T22:58:32.697Z,99987.44
2023-02-24T23:01:37.195Z,99982.38
2023-02-24T23:04:39.205Z,99969.50
2023-02-24T23:07:41.362Z,99976.28
2023-02-24T23:10:43.552Z,99980.25
2023-02-24T23:13:47.969Z,99969.22
2023-02-24T23:16:55.648Z,99953.78
2023-02-24T23:19:58.841Z,99960.84
2023-02-24T23:23:01.956Z,99966.53
2023-02-24T23:26:05.215Z,99960.03
2023-02-24T23:29:08.649Z,99968.97
2023-02-24T23:32:11.839Z,99954.22
2023-02-24T23:35:15.386Z,99947.56
2023-02-24T23:38:17.837Z,99966.78
2023-02-24T23:41:19.852Z,99947.66
2023-02-24T23:44:22.318Z,99946.19
2023-02-24T23:47:24.535Z,99953.47
2023-02-24T23:50:27.000Z,99953.47
2023-02-24T23:53:28.955Z,99955.28
2023-02-24T23:56:31.878Z,99941.72
2023-02-24T23:59:33.870Z,99942.53
